sensor_id;sensor_type;location;lat;lon;timestamp;P1;durP1;ratioP1;P2;durP2;ratioP2
21206;SDS011;10761;48.532;8.026;2024-01-27T00:01:48;12.27;;;2.97;;
21206;SDS011;10761;48.532;8.026;2024-01-27T00:04:13;7.32;;;2.42;;
21206;SDS011;10761;48.532;8.026;2024-01-27T00:06:39;5.30;;;2.35;;
21206;SDS011;10761;48.532;8.026;2024-01-27T00:09:04;8.40;;;2.63;;
21206;SDS011;10761;48.532;8.026;2024-01-27T00:11:31;8.07;;;2.30;;
21206;SDS011;10761;48.532;8.026;2024-01-27T00:13:57;7.00;;;2.70;;
21206;SDS011;10761;48.532;8.026;2024-01-27T00:16:24;8.75;;;2.97;;
21206;SDS011;10761;48.532;8.026;2024-01-27T00:18:49;8.00;;;2.50;;
21206;SDS011;10761;48.532;8.026;2024-01-27T00:21:15;9.05;;;2.63;;
21206;SDS011;10761;48.532;8.026;2024-01-27T00:23:41;4.43;;;2.58;;
21206;SDS011;10761;48.532;8.026;2024-01-27T00:26:06;9.07;;;2.80;;
21206;SDS011;10761;48.532;8.026;2024-01-27T00:28:32;6.95;;;3.20;;
21206;SDS011;10761;48.532;8.026;2024-01-27T00:30:57;12.98;;;3.38;;
21206;SDS011;10761;48.532;8.026;2024-01-27T00:33:23;6.50;;;3.00;;
21206;SDS011;10761;48.532;8.026;2024-01-27T00:35:48;7.65;;;2.80;;
21206;SDS011;10761;48.532;8.026;2024-01-27T00:38:14;7.38;;;2.70;;
21206;SDS011;10761;48.532;8.026;2024-01-27T00:40:40;8.00;;;2.40;;
21206;SDS011;10761;48.532;8.026;2024-01-27T00:43:05;9.88;;;3.00;;
21206;SDS011;10761;48.532;8.026;2024-01-27T00:45:31;8.15;;;2.75;;
21206;SDS011;10761;48.532;8.026;2024-01-27T00:47:56;9.50;;;2.90;;
21206;SDS011;10761;48.532;8.026;2024-01-27T00:50:22;7.78;;;2.90;;
21206;SDS011;10761;48.532;8.026;2024-01-27T00:52:48;7.10;;;2.95;;
21206;SDS011;10761;48.532;8.026;2024-01-27T00:55:14;9.82;;;3.30;;
21206;SDS011;10761;48.532;8.026;2024-01-27T00:57:40;8.95;;;3.17;;
21206;SDS011;10761;48.532;8.026;2024-01-27T01:00:09;7.30;;;3.03;;
21206;SDS011;10761;48.532;8.026;2024-01-27T01:02:36;7.13;;;2.55;;
21206;SDS011;10761;48.532;8.026;2024-01-27T01:05:02;10.35;;;3.10;;
21206;SDS011;10761;48.532;8.026;2024-01-27T01:07:31;7.05;;;2.53;;
21206;SDS011;10761;48.532;8.026;2024-01-27T01:09:57;6.22;;;2.20;;
21206;SDS011;10761;48.532;8.026;2024-01-27T01:12:23;6.95;;;2.47;;
21206;SDS011;10761;48.532;8.026;2024-01-27T01:14:50;8.20;;;3.05;;
21206;SDS011;10761;48.532;8.026;2024-01-27T01:17:16;9.23;;;3.25;;
21206;SDS011;10761;48.532;8.026;2024-01-27T01:19:42;9.23;;;2.88;;
21206;SDS011;10761;48.532;8.026;2024-01-27T01:22:07;7.88;;;3.45;;
21206;SDS011;10761;48.532;8.026;2024-01-27T01:24:33;10.50;;;3.15;;
21206;SDS011;10761;48.532;8.026;2024-01-27T01:26:58;10.07;;;3.00;;
21206;SDS011;10761;48.532;8.026;2024-01-27T01:29:24;10.70;;;2.40;;
21206;SDS011;10761;48.532;8.026;2024-01-27T01:31:50;8.07;;;3.05;;
21206;SDS011;10761;48.532;8.026;2024-01-27T01:34:16;6.80;;;2.63;;
21206;SDS011;10761;48.532;8.026;2024-01-27T01:36:42;11.00;;;3.20;;
21206;SDS011;10761;48.532;8.026;2024-01-27T01:39:09;14.45;;;3.03;;
21206;SDS011;10761;48.532;8.026;2024-01-27T01:41:35;9.30;;;3.33;;
21206;SDS011;10761;48.532;8.026;2024-01-27T01:44:01;8.88;;;3.28;;
21206;SDS011;10761;48.532;8.026;2024-01-27T01:46:26;4.93;;;2.53;;
21206;SDS011;10761;48.532;8.026;2024-01-27T01:48:52;9.35;;;2.60;;
21206;SDS011;10761;48.532;8.026;2024-01-27T01:51:18;6.18;;;2.70;;
21206;SDS011;10761;48.532;8.026;2024-01-27T01:53:45;4.57;;;2.63;;
21206;SDS011;10761;48.532;8.026;2024-01-27T01:56:14;10.18;;;2.38;;
21206;SDS011;10761;48.532;8.026;2024-01-27T01:58:40;8.70;;;2.80;;
21206;SDS011;10761;48.532;8.026;2024-01-27T02:01:06;9.02;;;2.53;;
21206;SDS011;10761;48.532;8.026;2024-01-27T02:03:32;8.48;;;2.53;;
21206;SDS011;10761;48.532;8.026;2024-01-27T02:05:57;9.95;;;2.60;;
21206;SDS011;10761;48.532;8.026;2024-01-27T02:08:23;8.13;;;2.83;;
21206;SDS011;10761;48.532;8.026;2024-01-27T02:10:48;9.10;;;2.30;;
21206;SDS011;10761;48.532;8.026;2024-01-27T02:13:17;8.68;;;2.72;;
21206;SDS011;10761;48.532;8.026;2024-01-27T02:15:44;5.82;;;2.28;;
21206;SDS011;10761;48.532;8.026;2024-01-27T02:18:10;9.30;;;2.15;;
21206;SDS011;10761;48.532;8.026;2024-01-27T02:20:35;7.57;;;2.83;;
21206;SDS011;10761;48.532;8.026;2024-01-27T02:23:02;5.40;;;2.05;;
21206;SDS011;10761;48.532;8.026;2024-01-27T02:25:29;10.05;;;2.90;;
21206;SDS011;10761;48.532;8.026;2024-01-27T02:27:55;13.05;;;2.63;;
21206;SDS011;10761;48.532;8.026;2024-01-27T02:30:21;9.57;;;2.03;;
21206;SDS011;10761;48.532;8.026;2024-01-27T02:32:46;7.57;;;2.50;;
21206;SDS011;10761;48.532;8.026;2024-01-27T02:35:12;7.40;;;2.15;;
21206;SDS011;10761;48.532;8.026;2024-01-27T02:37:39;9.55;;;2.65;;
21206;SDS011;10761;48.532;8.026;2024-01-27T02:40:05;6.93;;;2.45;;
21206;SDS011;10761;48.532;8.026;2024-01-27T02:42:32;10.02;;;2.67;;
21206;SDS011;10761;48.532;8.026;2024-01-27T02:44:57;6.65;;;2.35;;
21206;SDS011;10761;48.532;8.026;2024-01-27T02:47:23;8.93;;;2.60;;
21206;SDS011;10761;48.532;8.026;2024-01-27T02:49:48;7.25;;;2.28;;
21206;SDS011;10761;48.532;8.026;2024-01-27T02:52:14;7.07;;;2.25;;
21206;SDS011;10761;48.532;8.026;2024-01-27T02:54:40;6.93;;;2.42;;
21206;SDS011;10761;48.532;8.026;2024-01-27T02:57:05;4.53;;;1.83;;
21206;SDS011;10761;48.532;8.026;2024-01-27T02:59:31;5.85;;;2.20;;
21206;SDS011;10761;48.532;8.026;2024-01-27T03:01:56;7.63;;;2.10;;
21206;SDS011;10761;48.532;8.026;2024-01-27T03:04:22;9.60;;;2.45;;
21206;SDS011;10761;48.532;8.026;2024-01-27T03:06:47;6.00;;;2.35;;
21206;SDS011;10761;48.532;8.026;2024-01-27T03:09:13;6.35;;;2.40;;
21206;SDS011;10761;48.532;8.026;2024-01-27T03:11:38;8.50;;;3.22;;
21206;SDS011;10761;48.532;8.026;2024-01-27T03:14:04;6.93;;;2.30;;
21206;SDS011;10761;48.532;8.026;2024-01-27T03:16:30;13.25;;;2.50;;
21206;SDS011;10761;48.532;8.026;2024-01-27T03:18:55;6.60;;;2.10;;
21206;SDS011;10761;48.532;8.026;2024-01-27T03:21:21;9.18;;;2.67;;
21206;SDS011;10761;48.532;8.026;2024-01-27T03:23:46;6.30;;;2.30;;
21206;SDS011;10761;48.532;8.026;2024-01-27T03:26:12;8.13;;;2.42;;
21206;SDS011;10761;48.532;8.026;2024-01-27T03:28:37;7.70;;;2.00;;
21206;SDS011;10761;48.532;8.026;2024-01-27T03:31:03;11.48;;;3.05;;
21206;SDS011;10761;48.532;8.026;2024-01-27T03:33:28;5.80;;;2.20;;
21206;SDS011;10761;48.532;8.026;2024-01-27T03:35:55;9.02;;;2.30;;
21206;SDS011;10761;48.532;8.026;2024-01-27T03:38:21;9.02;;;2.30;;
21206;SDS011;10761;48.532;8.026;2024-01-27T03:40:47;6.50;;;2.30;;
21206;SDS011;10761;48.532;8.026;2024-01-27T03:43:12;8.15;;;2.67;;
21206;SDS011;10761;48.532;8.026;2024-01-27T03:45:38;8.70;;;2.33;;
21206;SDS011;10761;48.532;8.026;2024-01-27T03:48:03;8.15;;;2.67;;
21206;SDS011;10761;48.532;8.026;2024-01-27T03:50:29;9.55;;;2.22;;
21206;SDS011;10761;48.532;8.026;2024-01-27T03:52:55;7.65;;;2.53;;
21206;SDS011;10761;48.532;8.026;2024-01-27T03:55:20;8.25;;;2.35;;
21206;SDS011;10761;48.532;8.026;2024-01-27T03:57:46;6.93;;;2.47;;
21206;SDS011;10761;48.532;8.026;2024-01-27T04:00:11;6.32;;;2.20;;
21206;SDS011;10761;48.532;8.026;2024-01-27T04:02:37;9.13;;;2.78;;
21206;SDS011;10761;48.532;8.026;2024-01-27T04:05:03;9.18;;;2.45;;
21206;SDS011;10761;48.532;8.026;2024-01-27T04:07:30;9.82;;;2.55;;
21206;SDS011;10761;48.532;8.026;2024-01-27T04:09:56;10.50;;;2.90;;
21206;SDS011;10761;48.532;8.026;2024-01-27T04:12:21;11.10;;;3.22;;
21206;SDS011;10761;48.532;8.026;2024-01-27T04:14:47;9.93;;;2.47;;
21206;SDS011;10761;48.532;8.026;2024-01-27T04:17:12;9.82;;;2.95;;
21206;SDS011;10761;48.532;8.026;2024-01-27T04:19:38;8.98;;;2.67;;
21206;SDS011;10761;48.532;8.026;2024-01-27T04:22:03;6.50;;;2.72;;
21206;SDS011;10761;48.532;8.026;2024-01-27T04:24:29;9.25;;;3.10;;
21206;SDS011;10761;48.532;8.026;2024-01-27T04:26:54;8.13;;;2.35;;
21206;SDS011;10761;48.532;8.026;2024-01-27T04:29:20;8.05;;;2.35;;
21206;SDS011;10761;48.532;8.026;2024-01-27T04:31:45;7.35;;;2.45;;
21206;SDS011;10761;48.532;8.026;2024-01-27T04:34:11;5.60;;;2.75;;
21206;SDS011;10761;48.532;8.026;2024-01-27T04:36:37;9.77;;;2.20;;
21206;SDS011;10761;48.532;8.026;2024-01-27T04:39:02;7.88;;;2.08;;
21206;SDS011;10761;48.532;8.026;2024-01-27T04:41:29;7.80;;;2.53;;
21206;SDS011;10761;48.532;8.026;2024-01-27T04:43:54;12.77;;;2.60;;
21206;SDS011;10761;48.532;8.026;2024-01-27T04:46:21;11.10;;;2.17;;
21206;SDS011;10761;48.532;8.026;2024-01-27T04:48:47;9.93;;;2.30;;
21206;SDS011;10761;48.532;8.026;2024-01-27T04:51:13;9.93;;;2.83;;
21206;SDS011;10761;48.532;8.026;2024-01-27T04:53:39;7.40;;;2.38;;
21206;SDS011;10761;48.532;8.026;2024-01-27T04:56:04;10.10;;;2.00;;
21206;SDS011;10761;48.532;8.026;2024-01-27T04:58:33;7.97;;;2.50;;
21206;SDS011;10761;48.532;8.026;2024-01-27T05:01:02;9.93;;;3.20;;
21206;SDS011;10761;48.532;8.026;2024-01-27T05:03:28;34.13;;;17.10;;
21206;SDS011;10761;48.532;8.026;2024-01-27T05:05:53;18.35;;;5.18;;
21206;SDS011;10761;48.532;8.026;2024-01-27T05:08:19;7.30;;;2.50;;
21206;SDS011;10761;48.532;8.026;2024-01-27T05:10:44;10.13;;;2.75;;
21206;SDS011;10761;48.532;8.026;2024-01-27T05:13:10;9.80;;;2.47;;
21206;SDS011;10761;48.532;8.026;2024-01-27T05:15:36;8.98;;;2.53;;
21206;SDS011;10761;48.532;8.026;2024-01-27T05:18:01;7.32;;;2.25;;
21206;SDS011;10761;48.532;8.026;2024-01-27T05:20:27;8.18;;;2.72;;
21206;SDS011;10761;48.532;8.026;2024-01-27T05:22:52;11.23;;;2.80;;
21206;SDS011;10761;48.532;8.026;2024-01-27T05:25:18;7.85;;;2.70;;
21206;SDS011;10761;48.532;8.026;2024-01-27T05:27:44;12.15;;;2.75;;
21206;SDS011;10761;48.532;8.026;2024-01-27T05:30:09;10.43;;;2.58;;
21206;SDS011;10761;48.532;8.026;2024-01-27T05:32:35;9.70;;;2.72;;
21206;SDS011;10761;48.532;8.026;2024-01-27T05:35:01;10.70;;;3.55;;
21206;SDS011;10761;48.532;8.026;2024-01-27T05:37:28;9.00;;;2.70;;
21206;SDS011;10761;48.532;8.026;2024-01-27T05:39:53;9.43;;;2.65;;
21206;SDS011;10761;48.532;8.026;2024-01-27T05:42:19;8.50;;;2.88;;
21206;SDS011;10761;48.532;8.026;2024-01-27T05:44:44;10.50;;;3.45;;
21206;SDS011;10761;48.532;8.026;2024-01-27T05:47:10;10.00;;;2.60;;
21206;SDS011;10761;48.532;8.026;2024-01-27T05:49:36;8.25;;;2.80;;
21206;SDS011;10761;48.532;8.026;2024-01-27T05:52:01;6.90;;;2.80;;
21206;SDS011;10761;48.532;8.026;2024-01-27T05:54:27;6.38;;;2.80;;
21206;SDS011;10761;48.532;8.026;2024-01-27T05:56:53;10.02;;;2.90;;
21206;SDS011;10761;48.532;8.026;2024-01-27T05:59:18;5.57;;;2.33;;
21206;SDS011;10761;48.532;8.026;2024-01-27T06:01:44;13.65;;;3.00;;
21206;SDS011;10761;48.532;8.026;2024-01-27T06:04:10;6.72;;;2.70;;
21206;SDS011;10761;48.532;8.026;2024-01-27T06:06:40;7.47;;;3.10;;
21206;SDS011;10761;48.532;8.026;2024-01-27T06:09:06;13.20;;;3.10;;
21206;SDS011;10761;48.532;8.026;2024-01-27T06:11:35;8.15;;;2.78;;
21206;SDS011;10761;48.532;8.026;2024-01-27T06:14:02;9.52;;;2.95;;
21206;SDS011;10761;48.532;8.026;2024-01-27T06:16:27;10.35;;;2.95;;
21206;SDS011;10761;48.532;8.026;2024-01-27T06:18:53;9.30;;;3.10;;
21206;SDS011;10761;48.532;8.026;2024-01-27T06:21:19;10.43;;;3.78;;
21206;SDS011;10761;48.532;8.026;2024-01-27T06:23:45;13.25;;;4.35;;
21206;SDS011;10761;48.532;8.026;2024-01-27T06:26:12;14.48;;;5.80;;
21206;SDS011;10761;48.532;8.026;2024-01-27T06:28:39;12.10;;;5.57;;
21206;SDS011;10761;48.532;8.026;2024-01-27T06:31:04;14.32;;;7.25;;
21206;SDS011;10761;48.532;8.026;2024-01-27T06:33:30;10.25;;;5.07;;
21206;SDS011;10761;48.532;8.026;2024-01-27T06:35:56;12.10;;;4.72;;
21206;SDS011;10761;48.532;8.026;2024-01-27T06:38:22;11.52;;;3.83;;
21206;SDS011;10761;48.532;8.026;2024-01-27T06:40:48;10.50;;;3.35;;
21206;SDS011;10761;48.532;8.026;2024-01-27T06:43:13;13.27;;;3.60;;
21206;SDS011;10761;48.532;8.026;2024-01-27T06:45:39;10.60;;;3.10;;
21206;SDS011;10761;48.532;8.026;2024-01-27T06:48:05;9.50;;;3.78;;
21206;SDS011;10761;48.532;8.026;2024-01-27T06:50:32;10.60;;;3.40;;
21206;SDS011;10761;48.532;8.026;2024-01-27T06:52:58;9.68;;;3.92;;
21206;SDS011;10761;48.532;8.026;2024-01-27T06:55:24;11.23;;;4.82;;
21206;SDS011;10761;48.532;8.026;2024-01-27T06:57:49;10.13;;;3.67;;
21206;SDS011;10761;48.532;8.026;2024-01-27T07:00:15;14.13;;;4.40;;
21206;SDS011;10761;48.532;8.026;2024-01-27T07:02:41;13.05;;;4.22;;
21206;SDS011;10761;48.532;8.026;2024-01-27T07:05:08;11.90;;;4.32;;
21206;SDS011;10761;48.532;8.026;2024-01-27T07:07:34;11.57;;;4.68;;
21206;SDS011;10761;48.532;8.026;2024-01-27T07:10:00;6.75;;;3.85;;
21206;SDS011;10761;48.532;8.026;2024-01-27T07:12:28;10.95;;;4.57;;
21206;SDS011;10761;48.532;8.026;2024-01-27T07:14:53;14.40;;;5.18;;
21206;SDS011;10761;48.532;8.026;2024-01-27T07:17:22;14.30;;;4.78;;
21206;SDS011;10761;48.532;8.026;2024-01-27T07:19:47;15.50;;;4.57;;
21206;SDS011;10761;48.532;8.026;2024-01-27T07:22:13;14.65;;;4.43;;
21206;SDS011;10761;48.532;8.026;2024-01-27T07:24:38;24.88;;;10.73;;
21206;SDS011;10761;48.532;8.026;2024-01-27T07:27:04;11.18;;;3.85;;
21206;SDS011;10761;48.532;8.026;2024-01-27T07:29:30;11.10;;;4.03;;
21206;SDS011;10761;48.532;8.026;2024-01-27T07:31:55;18.45;;;4.32;;
21206;SDS011;10761;48.532;8.026;2024-01-27T07:34:21;10.10;;;4.10;;
21206;SDS011;10761;48.532;8.026;2024-01-27T07:36:47;11.30;;;3.90;;
21206;SDS011;10761;48.532;8.026;2024-01-27T07:39:14;12.95;;;3.88;;
21206;SDS011;10761;48.532;8.026;2024-01-27T07:41:40;12.68;;;3.50;;
21206;SDS011;10761;48.532;8.026;2024-01-27T07:44:09;7.10;;;3.15;;
21206;SDS011;10761;48.532;8.026;2024-01-27T07:46:37;12.02;;;2.95;;
21206;SDS011;10761;48.532;8.026;2024-01-27T07:49:03;7.97;;;2.63;;
21206;SDS011;10761;48.532;8.026;2024-01-27T07:51:29;13.63;;;7.05;;
21206;SDS011;10761;48.532;8.026;2024-01-27T07:53:55;13.95;;;7.70;;
21206;SDS011;10761;48.532;8.026;2024-01-27T07:56:20;16.83;;;7.68;;
21206;SDS011;10761;48.532;8.026;2024-01-27T07:58:46;14.55;;;7.25;;
21206;SDS011;10761;48.532;8.026;2024-01-27T08:01:14;12.65;;;6.80;;
21206;SDS011;10761;48.532;8.026;2024-01-27T08:03:40;20.33;;;8.85;;
21206;SDS011;10761;48.532;8.026;2024-01-27T08:06:07;13.30;;;5.47;;
21206;SDS011;10761;48.532;8.026;2024-01-27T08:08:36;8.60;;;4.75;;
21206;SDS011;10761;48.532;8.026;2024-01-27T08:11:02;4.53;;;3.00;;
21206;SDS011;10761;48.532;8.026;2024-01-27T08:13:28;11.45;;;3.60;;
21206;SDS011;10761;48.532;8.026;2024-01-27T08:15:53;8.40;;;3.03;;
21206;SDS011;10761;48.532;8.026;2024-01-27T08:18:19;9.27;;;2.63;;
21206;SDS011;10761;48.532;8.026;2024-01-27T08:20:44;7.32;;;2.80;;
21206;SDS011;10761;48.532;8.026;2024-01-27T08:23:10;10.43;;;3.15;;
21206;SDS011;10761;48.532;8.026;2024-01-27T08:25:36;6.10;;;2.40;;
21206;SDS011;10761;48.532;8.026;2024-01-27T08:28:01;7.30;;;4.10;;
21206;SDS011;10761;48.532;8.026;2024-01-27T08:30:27;12.57;;;5.03;;
21206;SDS011;10761;48.532;8.026;2024-01-27T08:32:52;9.57;;;5.20;;
21206;SDS011;10761;48.532;8.026;2024-01-27T08:35:18;15.63;;;7.18;;
21206;SDS011;10761;48.532;8.026;2024-01-27T08:37:43;16.02;;;6.45;;
21206;SDS011;10761;48.532;8.026;2024-01-27T08:40:09;9.20;;;6.00;;
21206;SDS011;10761;48.532;8.026;2024-01-27T08:42:35;11.57;;;6.18;;
21206;SDS011;10761;48.532;8.026;2024-01-27T08:45:01;8.43;;;4.82;;
21206;SDS011;10761;48.532;8.026;2024-01-27T08:47:26;6.40;;;3.28;;
21206;SDS011;10761;48.532;8.026;2024-01-27T08:49:52;8.25;;;4.80;;
21206;SDS011;10761;48.532;8.026;2024-01-27T08:52:18;8.93;;;3.72;;
21206;SDS011;10761;48.532;8.026;2024-01-27T08:54:44;14.13;;;4.57;;
21206;SDS011;10761;48.532;8.026;2024-01-27T08:57:09;11.15;;;5.93;;
21206;SDS011;10761;48.532;8.026;2024-01-27T08:59:35;9.75;;;4.90;;
21206;SDS011;10761;48.532;8.026;2024-01-27T09:02:01;11.38;;;5.30;;
21206;SDS011;10761;48.532;8.026;2024-01-27T09:04:26;11.52;;;5.78;;
21206;SDS011;10761;48.532;8.026;2024-01-27T09:06:52;11.30;;;6.10;;
21206;SDS011;10761;48.532;8.026;2024-01-27T09:09:18;9.43;;;6.13;;
21206;SDS011;10761;48.532;8.026;2024-01-27T09:11:43;10.07;;;6.38;;
21206;SDS011;10761;48.532;8.026;2024-01-27T09:14:11;10.15;;;6.35;;
21206;SDS011;10761;48.532;8.026;2024-01-27T09:16:36;14.52;;;7.35;;
21206;SDS011;10761;48.532;8.026;2024-01-27T09:19:02;11.10;;;6.28;;
21206;SDS011;10761;48.532;8.026;2024-01-27T09:21:27;8.70;;;5.13;;
21206;SDS011;10761;48.532;8.026;2024-01-27T09:23:55;9.70;;;5.43;;
21206;SDS011;10761;48.532;8.026;2024-01-27T09:26:22;13.05;;;5.15;;
21206;SDS011;10761;48.532;8.026;2024-01-27T09:28:48;9.57;;;4.35;;
21206;SDS011;10761;48.532;8.026;2024-01-27T09:31:25;12.15;;;4.57;;
21206;SDS011;10761;48.532;8.026;2024-01-27T09:33:54;8.25;;;4.50;;
21206;SDS011;10761;48.532;8.026;2024-01-27T09:36:20;13.50;;;4.93;;
21206;SDS011;10761;48.532;8.026;2024-01-27T09:38:46;10.98;;;5.32;;
21206;SDS011;10761;48.532;8.026;2024-01-27T09:41:15;12.32;;;4.95;;
21206;SDS011;10761;48.532;8.026;2024-01-27T09:43:42;9.82;;;5.45;;
21206;SDS011;10761;48.532;8.026;2024-01-27T09:46:14;10.63;;;4.85;;
21206;SDS011;10761;48.532;8.026;2024-01-27T09:48:41;10.48;;;4.53;;
21206;SDS011;10761;48.532;8.026;2024-01-27T09:51:07;11.18;;;4.78;;
21206;SDS011;10761;48.532;8.026;2024-01-27T09:53:34;9.18;;;4.57;;
21206;SDS011;10761;48.532;8.026;2024-01-27T09:56:00;14.13;;;5.00;;
21206;SDS011;10761;48.532;8.026;2024-01-27T09:58:29;7.68;;;4.38;;
21206;SDS011;10761;48.532;8.026;2024-01-27T10:00:56;9.82;;;4.78;;
21206;SDS011;10761;48.532;8.026;2024-01-27T10:03:27;11.15;;;4.85;;
21206;SDS011;10761;48.532;8.026;2024-01-27T10:05:54;10.65;;;5.18;;
21206;SDS011;10761;48.532;8.026;2024-01-27T10:08:21;13.70;;;4.70;;
21206;SDS011;10761;48.532;8.026;2024-01-27T10:10:54;8.85;;;4.78;;
21206;SDS011;10761;48.532;8.026;2024-01-27T10:13:21;11.80;;;4.95;;
21206;SDS011;10761;48.532;8.026;2024-01-27T10:16:00;9.35;;;4.68;;
21206;SDS011;10761;48.532;8.026;2024-01-27T10:18:33;15.10;;;5.72;;
21206;SDS011;10761;48.532;8.026;2024-01-27T10:21:00;10.93;;;5.13;;
21206;SDS011;10761;48.532;8.026;2024-01-27T10:23:32;10.55;;;5.10;;
21206;SDS011;10761;48.532;8.026;2024-01-27T10:26:04;9.88;;;5.10;;
21206;SDS011;10761;48.532;8.026;2024-01-27T10:28:30;13.63;;;5.32;;
21206;SDS011;10761;48.532;8.026;2024-01-27T10:31:07;9.85;;;4.88;;
21206;SDS011;10761;48.532;8.026;2024-01-27T10:33:33;9.52;;;4.68;;
21206;SDS011;10761;48.532;8.026;2024-01-27T10:35:59;9.98;;;4.82;;
21206;SDS011;10761;48.532;8.026;2024-01-27T10:38:33;9.60;;;4.63;;
21206;SDS011;10761;48.532;8.026;2024-01-27T10:41:07;12.80;;;4.43;;
21206;SDS011;10761;48.532;8.026;2024-01-27T10:43:35;11.13;;;5.60;;
21206;SDS011;10761;48.532;8.026;2024-01-27T10:46:02;11.02;;;5.22;;
21206;SDS011;10761;48.532;8.026;2024-01-27T10:48:30;12.13;;;6.25;;
21206;SDS011;10761;48.532;8.026;2024-01-27T10:50:57;11.55;;;6.45;;
21206;SDS011;10761;48.532;8.026;2024-01-27T10:53:25;12.88;;;7.00;;
21206;SDS011;10761;48.532;8.026;2024-01-27T10:55:55;11.82;;;5.05;;
21206;SDS011;10761;48.532;8.026;2024-01-27T10:58:23;13.95;;;5.80;;
21206;SDS011;10761;48.532;8.026;2024-01-27T11:00:50;11.38;;;7.22;;
21206;SDS011;10761;48.532;8.026;2024-01-27T11:03:18;12.02;;;6.30;;
21206;SDS011;10761;48.532;8.026;2024-01-27T11:05:45;13.23;;;5.78;;
21206;SDS011;10761;48.532;8.026;2024-01-27T11:08:12;9.32;;;4.55;;
21206;SDS011;10761;48.532;8.026;2024-01-27T11:10:38;8.25;;;4.00;;
21206;SDS011;10761;48.532;8.026;2024-01-27T11:13:05;7.80;;;3.90;;
21206;SDS011;10761;48.532;8.026;2024-01-27T11:15:32;7.45;;;3.53;;
21206;SDS011;10761;48.532;8.026;2024-01-27T11:17:58;9.70;;;3.55;;
21206;SDS011;10761;48.532;8.026;2024-01-27T11:20:25;7.45;;;3.42;;
21206;SDS011;10761;48.532;8.026;2024-01-27T11:22:50;7.85;;;3.50;;
21206;SDS011;10761;48.532;8.026;2024-01-27T11:25:17;10.15;;;4.30;;
21206;SDS011;10761;48.532;8.026;2024-01-27T11:27:44;10.00;;;4.00;;
21206;SDS011;10761;48.532;8.026;2024-01-27T11:30:24;9.93;;;3.88;;
21206;SDS011;10761;48.532;8.026;2024-01-27T11:32:53;10.07;;;4.32;;
21206;SDS011;10761;48.532;8.026;2024-01-27T11:35:22;8.25;;;4.75;;
21206;SDS011;10761;48.532;8.026;2024-01-27T11:37:51;9.10;;;3.90;;
21206;SDS011;10761;48.532;8.026;2024-01-27T11:40:17;10.75;;;4.90;;
21206;SDS011;10761;48.532;8.026;2024-01-27T11:42:42;11.02;;;5.15;;
21206;SDS011;10761;48.532;8.026;2024-01-27T11:45:09;9.07;;;4.40;;
21206;SDS011;10761;48.532;8.026;2024-01-27T11:47:35;8.77;;;4.30;;
21206;SDS011;10761;48.532;8.026;2024-01-27T11:50:00;7.68;;;4.57;;
21206;SDS011;10761;48.532;8.026;2024-01-27T11:52:27;10.77;;;5.05;;
21206;SDS011;10761;48.532;8.026;2024-01-27T11:54:56;9.05;;;4.78;;
21206;SDS011;10761;48.532;8.026;2024-01-27T11:57:25;9.35;;;4.70;;
21206;SDS011;10761;48.532;8.026;2024-01-27T11:59:51;10.38;;;4.35;;
21206;SDS011;10761;48.532;8.026;2024-01-27T12:02:17;7.65;;;4.10;;
21206;SDS011;10761;48.532;8.026;2024-01-27T12:04:43;8.15;;;4.13;;
21206;SDS011;10761;48.532;8.026;2024-01-27T12:07:09;9.32;;;4.10;;
21206;SDS011;10761;48.532;8.026;2024-01-27T12:09:38;6.47;;;4.00;;
21206;SDS011;10761;48.532;8.026;2024-01-27T12:12:04;6.60;;;3.90;;
21206;SDS011;10761;48.532;8.026;2024-01-27T12:14:49;12.35;;;4.00;;
21206;SDS011;10761;48.532;8.026;2024-01-27T12:17:16;8.00;;;4.40;;
21206;SDS011;10761;48.532;8.026;2024-01-27T12:19:45;11.48;;;4.00;;
21206;SDS011;10761;48.532;8.026;2024-01-27T12:24:51;9.73;;;4.63;;
21206;SDS011;10761;48.532;8.026;2024-01-27T12:27:17;7.28;;;3.90;;
21206;SDS011;10761;48.532;8.026;2024-01-27T12:29:43;5.75;;;3.75;;
21206;SDS011;10761;48.532;8.026;2024-01-27T12:32:11;10.07;;;4.82;;
21206;SDS011;10761;48.532;8.026;2024-01-27T12:34:42;10.55;;;4.97;;
21206;SDS011;10761;48.532;8.026;2024-01-27T12:37:10;9.60;;;3.55;;
21206;SDS011;10761;48.532;8.026;2024-01-27T12:39:37;7.75;;;3.17;;
21206;SDS011;10761;48.532;8.026;2024-01-27T12:42:05;7.15;;;3.33;;
21206;SDS011;10761;48.532;8.026;2024-01-27T12:44:31;8.52;;;4.28;;
21206;SDS011;10761;48.532;8.026;2024-01-27T12:46:56;8.82;;;3.33;;
21206;SDS011;10761;48.532;8.026;2024-01-27T12:49:22;8.82;;;4.05;;
21206;SDS011;10761;48.532;8.026;2024-01-27T12:51:48;10.82;;;3.95;;
21206;SDS011;10761;48.532;8.026;2024-01-27T12:54:14;7.53;;;3.55;;
21206;SDS011;10761;48.532;8.026;2024-01-27T12:56:40;7.65;;;3.70;;
21206;SDS011;10761;48.532;8.026;2024-01-27T12:59:05;7.07;;;3.08;;
21206;SDS011;10761;48.532;8.026;2024-01-27T13:01:32;8.70;;;3.58;;
21206;SDS011;10761;48.532;8.026;2024-01-27T13:03:58;7.22;;;3.05;;
21206;SDS011;10761;48.532;8.026;2024-01-27T13:06:24;6.78;;;3.33;;
21206;SDS011;10761;48.532;8.026;2024-01-27T13:08:49;9.45;;;3.30;;
21206;SDS011;10761;48.532;8.026;2024-01-27T13:11:16;6.88;;;3.50;;
21206;SDS011;10761;48.532;8.026;2024-01-27T13:13:42;8.80;;;3.90;;
21206;SDS011;10761;48.532;8.026;2024-01-27T13:16:07;6.95;;;3.08;;
21206;SDS011;10761;48.532;8.026;2024-01-27T13:18:33;5.95;;;2.95;;
21206;SDS011;10761;48.532;8.026;2024-01-27T13:20:59;7.80;;;3.20;;
21206;SDS011;10761;48.532;8.026;2024-01-27T13:23:24;4.97;;;2.92;;
21206;SDS011;10761;48.532;8.026;2024-01-27T13:25:50;9.07;;;3.08;;
21206;SDS011;10761;48.532;8.026;2024-01-27T13:28:15;6.80;;;3.35;;
21206;SDS011;10761;48.532;8.026;2024-01-27T13:30:41;7.88;;;3.50;;
21206;SDS011;10761;48.532;8.026;2024-01-27T13:33:07;5.82;;;3.28;;
21206;SDS011;10761;48.532;8.026;2024-01-27T13:35:32;7.40;;;2.80;;
21206;SDS011;10761;48.532;8.026;2024-01-27T13:37:58;7.13;;;3.38;;
21206;SDS011;10761;48.532;8.026;2024-01-27T13:40:23;10.23;;;3.30;;
21206;SDS011;10761;48.532;8.026;2024-01-27T13:42:49;8.55;;;3.28;;
21206;SDS011;10761;48.532;8.026;2024-01-27T13:45:15;9.75;;;3.35;;
21206;SDS011;10761;48.532;8.026;2024-01-27T13:47:40;6.68;;;2.75;;
21206;SDS011;10761;48.532;8.026;2024-01-27T13:50:06;11.65;;;3.53;;
21206;SDS011;10761;48.532;8.026;2024-01-27T13:52:32;6.95;;;3.35;;
21206;SDS011;10761;48.532;8.026;2024-01-27T13:54:58;8.88;;;3.80;;
21206;SDS011;10761;48.532;8.026;2024-01-27T13:57:24;9.05;;;4.05;;
21206;SDS011;10761;48.532;8.026;2024-01-27T13:59:49;8.25;;;3.72;;
21206;SDS011;10761;48.532;8.026;2024-01-27T14:02:15;9.95;;;4.20;;
21206;SDS011;10761;48.532;8.026;2024-01-27T14:04:41;10.35;;;4.22;;
21206;SDS011;10761;48.532;8.026;2024-01-27T14:07:06;10.40;;;4.30;;
21206;SDS011;10761;48.532;8.026;2024-01-27T14:09:34;10.07;;;4.80;;
21206;SDS011;10761;48.532;8.026;2024-01-27T14:12:00;12.00;;;5.15;;
21206;SDS011;10761;48.532;8.026;2024-01-27T14:14:26;10.40;;;5.35;;
21206;SDS011;10761;48.532;8.026;2024-01-27T14:16:51;15.02;;;5.50;;
21206;SDS011;10761;48.532;8.026;2024-01-27T14:19:17;8.15;;;5.32;;
21206;SDS011;10761;48.532;8.026;2024-01-27T14:21:43;9.45;;;5.18;;
21206;SDS011;10761;48.532;8.026;2024-01-27T14:24:08;11.40;;;5.50;;
21206;SDS011;10761;48.532;8.026;2024-01-27T14:26:35;9.80;;;5.45;;
21206;SDS011;10761;48.532;8.026;2024-01-27T14:29:00;10.98;;;5.50;;
21206;SDS011;10761;48.532;8.026;2024-01-27T14:31:26;8.32;;;5.18;;
21206;SDS011;10761;48.532;8.026;2024-01-27T14:33:52;11.43;;;5.60;;
21206;SDS011;10761;48.532;8.026;2024-01-27T14:36:19;12.80;;;4.80;;
21206;SDS011;10761;48.532;8.026;2024-01-27T14:38:48;10.60;;;5.00;;
21206;SDS011;10761;48.532;8.026;2024-01-27T14:41:14;13.10;;;4.88;;